Time;durP1;ratioP1;P1;durP2;ratioP2;P2;SDS_P1;SDS_P2;PMS_P1;PMS_P2;Temp;Humidity;BMP_temperature;BMP_pressure;BME280_temperature;BME280_humidity;BME280_pressure;Samples;Min_cycle;Max_cycle;Signal;HPM_P1;HPM_P2
2022/09/24 00:00:39;;;;;;;2.83;2.00;;;;;;;9.69;68.38;98821.97;5103919;28;20036;-56
2022/09/24 00:03:29;;;;;;;3.47;2.25;;;;;;;9.82;67.94;98809.78;5099606;28;20036;-53
2022/09/24 00:06:17;;;;;;;3.67;2.53;;;;;;;9.79;68.02;98812.56;5106924;28;20101;-52
2022/09/24 00:09:03;;;;;;;5.60;2.97;;;;;;;9.67;68.61;98805.53;5075782;28;20054;-50
2022/09/24 00:11:52;;;;;;;3.80;2.55;;;;;;;9.69;68.80;98812.34;5093034;28;20051;-55
2022/09/24 00:14:36;;;;;;;3.97;2.70;;;;;;;9.51;69.47;98808.28;5090835;28;20043;-51
2022/09/24 00:17:21;;;;;;;3.90;2.75;;;;;;;9.53;69.40;98803.81;5090917;28;20051;-56
2022/09/24 00:20:06;;;;;;;5.20;2.70;;;;;;;9.45;69.64;98802.50;5087930;28;20081;-57
2022/09/24 00:22:51;;;;;;;4.18;3.13;;;;;;;9.53;69.31;98795.97;5090148;28;20083;-51
2022/09/24 00:28:49;;;;;;;5.55;3.30;;;;;;;9.39;69.88;98808.13;5088527;28;20165;-50
2022/09/24 00:31:34;;;;;;;4.20;3.50;;;;;;;9.42;69.82;98800.09;5089857;28;20051;-53
2022/09/24 00:34:20;;;;;;;4.70;3.20;;;;;;;9.43;69.81;98807.00;5091226;28;20177;-55
2022/09/24 00:37:04;;;;;;;4.80;3.53;;;;;;;9.41;69.68;98801.03;5086885;28;20047;-53
2022/09/24 00:39:49;;;;;;;5.47;3.40;;;;;;;9.40;69.91;98798.53;5099809;28;20461;-57
2022/09/24 00:42:34;;;;;;;4.90;3.25;;;;;;;9.28;70.54;98797.50;5096143;28;20036;-56
2022/09/24 00:45:18;;;;;;;6.53;3.60;;;;;;;9.10;71.52;98795.97;5090232;28;20035;-55
2022/09/24 00:48:03;;;;;;;5.95;3.58;;;;;;;9.05;72.14;98802.38;5105706;28;20031;-54
2022/09/24 00:50:48;;;;;;;7.55;4.05;;;;;;;9.06;71.94;98793.59;5093379;28;20467;-55
2022/09/24 00:53:33;;;;;;;4.97;3.75;;;;;;;9.08;72.13;98792.59;5100728;28;20036;-54
2022/09/24 00:56:19;;;;;;;5.07;3.83;;;;;;;9.09;71.86;98783.81;5104855;28;20044;-49
2022/09/24 00:59:09;;;;;;;4.82;3.40;;;;;;;9.19;71.38;98784.06;5080967;28;20558;-52
2022/09/24 01:01:56;;;;;;;5.80;3.47;;;;;;;9.17;71.36;98787.72;5101205;28;20044;-53
2022/09/24 01:04:41;;;;;;;6.50;3.95;;;;;;;9.16;71.84;98786.88;5101471;28;20048;-51
2022/09/24 01:07:26;;;;;;;4.75;3.42;;;;;;;9.15;71.81;98784.38;5081862;28;20054;-51
2022/09/24 01:10:10;;;;;;;5.07;3.70;;;;;;;9.06;72.05;98791.00;5088174;28;20064;-50
2022/09/24 01:13:05;;;;;;;5.78;3.58;;;;;;;9.06;72.00;98793.59;5091219;28;20075;-55
2022/09/24 01:16:05;;;;;;;5.68;3.63;;;;;;;8.94;72.65;98787.38;5088482;28;20123;-54
2022/09/24 01:19:17;;;;;;;7.70;4.10;;;;;;;8.99;72.74;98786.16;5089592;28;20044;-51
2022/09/24 01:22:11;;;;;;;6.90;4.13;;;;;;;8.91;73.09;98777.94;5087770;28;20034;-55
2022/09/24 01:25:20;;;;;;;5.22;4.03;;;;;;;8.97;72.90;98776.72;5089828;28;20072;-54
2022/09/24 01:28:14;;;;;;;5.32;3.90;;;;;;;8.84;73.57;98781.88;5088571;28;20123;-56
2022/09/24 01:31:05;;;;;;;7.20;4.55;;;;;;;8.80;73.84;98773.38;5089449;28;20446;-52
2022/09/24 01:33:53;;;;;;;7.25;4.43;;;;;;;8.85;73.63;98770.47;5094012;28;20082;-53
2022/09/24 01:36:40;;;;;;;5.55;4.18;;;;;;;8.90;73.48;98765.81;5086886;28;20391;-53
2022/09/24 01:39:26;;;;;;;4.75;3.80;;;;;;;8.87;73.82;98766.84;5101430;28;20111;-57
2022/09/24 01:42:12;;;;;;;6.15;4.07;;;;;;;8.68;74.91;98761.06;5092007;28;20058;-55
2022/09/24 01:45:00;;;;;;;5.78;3.72;;;;;;;8.69;75.00;98757.53;5086558;28;20039;-55
2022/09/24 01:47:46;;;;;;;5.95;4.28;;;;;;;8.65;75.18;98764.69;5091129;28;20043;-55
2022/09/24 01:50:40;;;;;;;5.88;4.05;;;;;;;8.52;75.85;98753.31;5092292;28;20123;-53
2022/09/24 01:53:34;;;;;;;8.15;4.00;;;;;;;8.58;75.88;98756.41;5088768;28;20048;-54
2022/09/24 01:56:24;;;;;;;5.40;4.00;;;;;;;8.52;75.87;98756.72;5091596;28;20043;-54
2022/09/24 01:59:11;;;;;;;7.57;4.70;;;;;;;8.40;76.48;98739.22;5107484;28;20045;-55
2022/09/24 02:02:15;;;;;;;6.60;4.45;;;;;;;8.20;77.63;98736.84;5080394;28;20052;-52
2022/09/24 02:05:20;;;;;;;7.80;5.00;;;;;;;8.17;77.86;98737.03;5103882;28;20052;-58
2022/09/24 02:08:11;;;;;;;9.13;4.45;;;;;;;8.10;78.10;98733.09;5107341;28;20063;-53
2022/09/24 02:11:05;;;;;;;7.88;4.85;;;;;;;8.13;78.20;98730.31;5095827;28;20050;-56
2022/09/24 02:14:03;;;;;;;6.20;4.32;;;;;;;8.08;78.50;98729.75;5086953;28;20059;-55
2022/09/24 02:16:48;;;;;;;7.65;4.57;;;;;;;7.99;79.08;98728.53;5104960;28;20051;-57
2022/09/24 02:19:37;;;;;;;6.57;4.45;;;;;;;7.92;79.94;98733.25;5106882;28;20082;-56
2022/09/24 02:22:24;;;;;;;7.72;4.57;;;;;;;7.94;79.65;98731.41;5095797;28;20387;-55
2022/09/24 02:25:13;;;;;;;7.70;4.88;;;;;;;7.96;80.11;98726.09;5107908;28;20066;-54
2022/09/24 02:27:58;;;;;;;6.97;4.80;;;;;;;8.00;79.36;98723.22;5073400;28;20142;-54
2022/09/24 02:30:50;;;;;;;7.18;3.95;;;;;;;8.10;79.08;98722.66;5111080;28;20063;-54
2022/09/24 02:36:40;;;;;;;8.70;5.07;;;;;;;7.98;79.46;98711.19;5106318;28;20048;-50
2022/09/24 02:39:26;;;;;;;6.75;4.70;;;;;;;7.86;80.29;98710.13;5079856;28;20157;-53
2022/09/24 02:42:14;;;;;;;6.70;4.90;;;;;;;7.95;79.88;98695.72;5109130;28;20110;-54
2022/09/24 02:44:59;;;;;;;8.90;4.90;;;;;;;7.83;80.46;98700.72;5100843;28;20052;-52
2022/09/24 02:47:43;;;;;;;8.93;5.60;;;;;;;7.91;80.17;98689.84;5090109;28;20086;-52
2022/09/24 02:50:28;;;;;;;9.20;4.82;;;;;;;7.90;80.36;98695.97;5105578;27;20036;-54
2022/09/24 02:53:13;;;;;;;7.28;5.25;;;;;;;7.91;80.21;98699.44;5095826;28;20127;-54
2022/09/24 02:55:59;;;;;;;9.52;5.38;;;;;;;7.82;80.55;98701.66;5084756;28;20032;-54
2022/09/24 02:58:44;;;;;;;7.40;5.15;;;;;;;7.87;80.48;98701.38;5099650;28;20067;-55
2022/09/24 03:01:30;;;;;;;7.88;5.15;;;;;;;7.83;80.68;98700.72;5093486;28;20028;-55
2022/09/24 03:04:15;;;;;;;9.05;5.38;;;;;;;7.89;80.27;98712.56;5090719;28;20074;-58
2022/09/24 03:07:01;;;;;;;7.72;4.95;;;;;;;7.80;80.64;98707.88;5089924;28;20147;-51
2022/09/24 03:09:46;;;;;;;7.57;4.90;;;;;;;7.72;81.27;98718.78;5091885;28;20036;-51
2022/09/24 03:12:31;;;;;;;14.20;5.40;;;;;;;7.85;80.63;98706.69;5092252;28;20044;-50
2022/09/24 03:15:16;;;;;;;9.57;5.07;;;;;;;7.82;80.76;98711.22;5104402;27;20360;-57
2022/09/24 03:18:00;;;;;;;9.35;5.50;;;;;;;7.69;81.59;98700.66;5093241;28;20039;-54
2022/09/24 03:21:09;;;;;;;9.10;5.22;;;;;;;7.65;82.08;98697.41;5093055;28;20542;-56
2022/09/24 03:23:54;;;;;;;7.80;4.93;;;;;;;7.69;81.90;98693.69;5092102;28;20553;-57
2022/09/24 03:26:38;;;;;;;8.25;5.00;;;;;;;7.80;81.22;98692.25;5098523;28;20470;-54
2022/09/24 03:30:58;;;;;;;8.35;5.13;;;;;;;7.81;81.21;98684.31;5090171;28;20114;-53
2022/09/24 03:32:32;;;;;;;8.13;5.38;;;;;;;7.72;81.72;98680.47;5091089;28;20036;-54
2022/09/24 03:35:18;;;;;;;6.60;4.78;;;;;;;7.73;81.91;98690.00;5089991;28;20040;-55
2022/09/24 03:38:03;;;;;;;7.78;5.22;;;;;;;7.77;81.63;98693.25;5092844;28;20127;-51
2022/09/24 03:40:48;;;;;;;7.32;5.00;;;;;;;7.72;81.85;98696.13;5089218;28;20059;-55
2022/09/24 03:43:33;;;;;;;7.72;4.75;;;;;;;7.61;82.54;98685.47;5088859;28;20039;-51
2022/09/24 03:46:18;;;;;;;10.00;5.30;;;;;;;7.59;82.64;98682.13;5089381;28;20043;-50
2022/09/24 03:49:02;;;;;;;8.60;5.38;;;;;;;7.72;81.93;98683.09;5091725;28;20059;-56
2022/09/24 03:51:47;;;;;;;7.72;5.15;;;;;;;7.66;82.27;98691.25;5089438;28;20104;-52
2022/09/24 03:54:31;;;;;;;8.00;5.53;;;;;;;7.49;83.49;98695.66;5089115;28;20090;-53
2022/09/24 03:57:16;;;;;;;9.90;5.57;;;;;;;7.39;83.79;98684.94;5091193;28;20378;-57
2022/09/24 04:00:02;;;;;;;8.88;6.00;;;;;;;7.35;84.46;98690.41;5091735;28;20044;-54
2022/09/24 04:02:51;;;;;;;9.55;6.15;;;;;;;7.25;85.38;98687.47;5093440;28;20118;-53
2022/09/24 04:05:36;;;;;;;6.88;4.82;;;;;;;7.32;84.78;98690.56;5101353;28;20072;-53
2022/09/24 04:08:22;;;;;;;15.23;6.20;;;;;;;7.27;84.80;98694.28;5091734;28;20036;-55
2022/09/24 04:11:07;;;;;;;7.60;5.88;;;;;;;7.19;85.21;98677.41;5091475;28;20032;-54
2022/09/24 04:13:52;;;;;;;9.05;6.32;;;;;;;7.05;86.03;98667.75;5091607;28;20049;-55
2022/09/24 04:16:37;;;;;;;7.90;5.72;;;;;;;7.05;86.37;98678.19;5104446;27;20066;-56
2022/09/24 04:19:21;;;;;;;6.68;5.20;;;;;;;6.99;86.54;98677.59;5087885;28;20093;-57
2022/09/24 04:22:06;;;;;;;8.68;6.05;;;;;;;7.01;86.73;98678.34;5088927;28;20104;-53
2022/09/24 04:24:51;;;;;;;14.18;6.07;;;;;;;6.97;86.82;98683.81;5088528;28;20063;-55
2022/09/24 04:27:36;;;;;;;12.27;5.90;;;;;;;7.14;86.03;98683.72;5088470;28;20066;-53
2022/09/24 04:30:22;;;;;;;9.40;5.38;;;;;;;7.07;86.20;98692.78;5089929;28;20082;-51
2022/09/24 04:33:07;;;;;;;8.90;5.53;;;;;;;7.10;86.27;98684.81;5094996;28;20035;-56
2022/09/24 04:35:52;;;;;;;7.95;5.45;;;;;;;7.23;85.97;98687.56;5091176;28;20043;-52
2022/09/24 04:38:38;;;;;;;8.23;5.32;;;;;;;7.22;85.73;98678.06;5097190;28;20035;-52
2022/09/24 04:41:22;;;;;;;9.52;5.43;;;;;;;7.26;85.33;98684.78;5091992;28;20028;-53
2022/09/24 04:44:07;;;;;;;8.07;5.13;;;;;;;7.34;85.25;98686.97;5088782;28;20357;-56
2022/09/24 04:46:51;;;;;;;7.82;5.25;;;;;;;7.27;84.82;98688.22;5090367;28;20055;-55
2022/09/24 04:49:36;;;;;;;8.77;5.72;;;;;;;7.11;85.80;98683.91;5089792;28;20047;-54
2022/09/24 04:52:25;;;;;;;8.23;5.40;;;;;;;7.30;85.43;98689.81;5090389;28;20032;-51
2022/09/24 04:55:10;;;;;;;9.45;5.70;;;;;;;7.35;84.96;98687.78;5092305;28;20032;-53
2022/09/24 04:57:58;;;;;;;6.63;4.80;;;;;;;7.50;84.24;98675.66;5089063;28;20044;-55
2022/09/24 05:00:43;;;;;;;8.75;5.10;;;;;;;7.59;83.74;98675.13;5084704;28;20075;-50
2022/09/24 05:03:27;;;;;;;8.60;5.80;;;;;;;7.32;84.89;98672.34;5096299;28;20059;-54
2022/09/24 05:06:12;;;;;;;9.98;5.43;;;;;;;7.35;84.89;98670.41;5086977;28;20093;-54
2022/09/24 05:08:57;;;;;;;9.93;5.53;;;;;;;7.41;84.30;98673.59;5087406;28;20036;-50
2022/09/24 05:11:41;;;;;;;8.52;5.07;;;;;;;7.55;83.74;98660.59;5108812;28;20036;-56
2022/09/24 05:14:26;;;;;;;8.40;5.50;;;;;;;7.54;83.96;98661.50;5089508;28;20051;-55
2022/09/24 05:17:13;;;;;;;12.45;6.13;;;;;;;7.54;83.62;98656.31;5091018;28;20089;-56
2022/09/24 05:20:00;;;;;;;7.07;5.07;;;;;;;7.74;82.92;98669.94;5089493;28;20241;-52
2022/09/24 05:22:47;;;;;;;7.07;4.78;;;;;;;7.63;83.09;98670.59;5088746;28;20039;-53
2022/09/24 05:25:31;;;;;;;7.63;5.10;;;;;;;7.70;82.69;98674.53;5083651;28;20036;-53
2022/09/24 05:28:16;;;;;;;9.00;5.40;;;;;;;7.71;82.44;98676.19;5090225;28;20393;-54
2022/09/24 05:31:00;;;;;;;8.65;5.40;;;;;;;7.86;82.03;98674.47;5106164;28;20113;-52
2022/09/24 05:33:45;;;;;;;7.82;5.63;;;;;;;7.84;82.05;98672.88;5097049;28;20550;-49
2022/09/24 05:36:30;;;;;;;7.00;4.95;;;;;;;7.85;81.91;98666.72;5090590;28;20028;-51
2022/09/24 05:39:14;;;;;;;9.95;6.28;;;;;;;7.79;82.03;98677.50;5091640;28;20115;-54
2022/09/24 05:42:00;;;;;;;8.02;5.35;;;;;;;7.61;82.69;98675.88;5093886;28;20036;-51
2022/09/24 05:44:45;;;;;;;8.30;5.70;;;;;;;7.53;83.17;98675.50;5093435;28;20032;-54
2022/09/24 05:47:29;;;;;;;7.85;5.10;;;;;;;7.85;81.87;98687.59;5083927;28;20048;-57
2022/09/24 05:50:15;;;;;;;8.77;5.32;;;;;;;7.99;81.06;98689.38;5090775;28;20467;-52
2022/09/24 05:53:03;;;;;;;9.55;5.20;;;;;;;8.05;80.77;98685.56;5091253;28;20056;-54
2022/09/24 05:55:48;;;;;;;8.88;4.95;;;;;;;8.05;80.80;98685.56;5095851;28;20044;-55
2022/09/24 05:58:33;;;;;;;11.48;5.80;;;;;;;7.81;81.61;98699.13;5092203;28;20379;-56
2022/09/24 06:01:17;;;;;;;8.75;5.25;;;;;;;7.83;81.42;98705.09;5094724;28;20047;-56
2022/09/24 06:04:02;;;;;;;9.15;5.72;;;;;;;7.87;81.57;98701.38;5100974;28;20050;-54
2022/09/24 06:06:47;;;;;;;10.32;6.57;;;;;;;8.09;81.07;98697.50;5097804;28;20052;-55
2022/09/24 06:09:31;;;;;;;9.30;5.57;;;;;;;8.14;80.77;98709.34;5093151;28;20111;-55
2022/09/24 06:12:16;;;;;;;10.43;6.25;;;;;;;8.26;80.09;98713.00;5095922;28;20115;-59
2022/09/24 06:15:04;;;;;;;7.28;4.93;;;;;;;8.28;79.97;98696.41;5090289;28;20078;-62
2022/09/24 06:17:54;;;;;;;8.90;5.53;;;;;;;8.17;81.03;98704.88;5088084;28;20108;-58
2022/09/24 06:20:49;;;;;;;8.13;4.82;;;;;;;8.07;80.90;98701.97;5097499;28;20124;-55
2022/09/24 06:23:36;;;;;;;7.28;4.97;;;;;;;8.26;80.22;98713.00;5086794;28;20615;-59
2022/09/24 06:26:21;;;;;;;8.40;5.00;;;;;;;8.42;79.72;98713.84;5089837;28;20126;-54
2022/09/24 06:29:05;;;;;;;9.90;5.40;;;;;;;8.57;78.82;98714.72;5088564;28;20162;-60
2022/09/24 06:31:52;;;;;;;10.52;5.53;;;;;;;9.27;76.98;98717.41;5088364;27;20040;-53
2022/09/24 06:34:36;;;;;;;9.05;4.82;;;;;;;10.29;73.80;98706.41;5091239;28;20123;-57
2022/09/24 06:37:21;;;;;;;8.27;5.38;;;;;;;9.98;73.12;98714.56;5088047;28;20035;-58
2022/09/24 06:40:06;;;;;;;11.95;5.10;;;;;;;10.67;84.69;98716.06;5090417;28;20036;-56
2022/09/24 06:42:51;;;;;;;7.18;5.03;;;;;;;9.65;73.90;98716.69;5090590;28;20506;-56
2022/09/24 06:45:36;;;;;;;7.25;5.32;;;;;;;9.63;74.03;98731.63;5087530;28;20044;-55
2022/09/24 06:48:21;;;;;;;9.65;6.53;;;;;;;9.27;75.45;98733.09;5088844;28;20090;-60
2022/09/24 06:51:06;;;;;;;10.02;6.30;;;;;;;9.28;74.87;98714.69;5089819;28;20042;-59
2022/09/24 06:53:51;;;;;;;7.22;5.13;;;;;;;9.38;75.56;98721.94;5090887;28;20036;-61
2022/09/24 06:56:35;;;;;;;8.95;5.72;;;;;;;9.29;75.58;98710.28;5091457;28;20167;-55
2022/09/24 06:59:20;;;;;;;8.57;5.82;;;;;;;9.68;74.19;98702.56;5089451;28;20542;-56
2022/09/24 07:02:05;;;;;;;7.43;5.00;;;;;;;10.04;72.58;98708.06;5101256;28;20130;-55
2022/09/24 07:04:50;;;;;;;9.98;5.25;;;;;;;11.24;76.46;98701.63;5091003;28;20040;-55
2022/09/24 07:07:36;;;;;;;7.45;4.75;;;;;;;10.89;69.47;98690.94;5087915;28;20035;-56
2022/09/24 07:10:23;;;;;;;7.28;5.20;;;;;;;10.87;69.04;98692.84;5092500;28;20040;-55
2022/09/24 07:13:07;;;;;;;10.52;5.30;;;;;;;11.49;69.88;98694.59;5089309;28;20074;-55
2022/09/24 07:15:52;;;;;;;6.57;4.47;;;;;;;10.35;70.20;98691.13;5085383;28;20410;-53
2022/09/24 07:18:37;;;;;;;8.00;4.70;;;;;;;10.14;71.88;98676.88;5087129;28;20115;-57
2022/09/24 07:21:22;;;;;;;7.75;4.93;;;;;;;10.38;70.79;98684.81;5088106;28;20036;-55
2022/09/24 07:24:07;;;;;;;6.97;4.60;;;;;;;11.11;68.42;98688.56;5093264;28;20036;-55
2022/09/24 07:26:51;;;;;;;7.07;4.65;;;;;;;11.52;66.48;98687.31;5087959;28;20044;-59
2022/09/24 07:29:37;;;;;;;9.45;4.78;;;;;;;10.93;68.15;98700.28;5089060;28;20040;-57
2022/09/24 07:32:21;;;;;;;7.53;4.07;;;;;;;10.51;70.36;98707.59;5090819;28;20044;-57
2022/09/24 07:35:06;;;;;;;5.85;4.22;;;;;;;10.80;69.01;98699.47;5088650;28;20147;-50
2022/09/24 07:38:02;;;;;;;6.35;4.82;;;;;;;10.77;69.62;98704.94;5089026;28;20046;-57
2022/09/24 07:40:47;;;;;;;6.35;4.43;;;;;;;10.74;69.89;98705.97;5089202;28;20122;-55
2022/09/24 07:43:32;;;;;;;6.85;4.15;;;;;;;10.73;69.79;98706.91;5089343;28;20039;-58
2022/09/24 07:46:18;;;;;;;6.28;4.35;;;;;;;11.20;68.69;98707.09;5099972;27;20043;-56
2022/09/24 07:49:03;;;;;;;7.13;4.68;;;;;;;11.57;67.77;98708.00;5085737;28;20666;-59
2022/09/24 07:51:48;;;;;;;7.40;4.50;;;;;;;11.71;66.50;98717.47;5076248;28;20040;-56
2022/09/24 07:54:32;;;;;;;7.20;4.30;;;;;;;12.26;65.58;98716.06;5091782;28;20032;-55
2022/09/24 07:57:17;;;;;;;6.95;4.40;;;;;;;12.19;65.61;98706.03;5091954;27;20125;-59
2022/09/24 08:00:01;;;;;;;8.75;5.10;;;;;;;12.61;63.88;98714.31;5102810;27;20064;-59
2022/09/24 08:02:56;;;;;;;8.85;5.78;;;;;;;12.02;65.99;98715.16;5090778;27;20076;-56
2022/09/24 08:05:44;;;;;;;5.57;3.63;;;;;;;12.42;64.59;98713.13;5089967;27;20067;-57
2022/09/24 08:08:28;;;;;;;6.55;4.28;;;;;;;13.04;62.47;98707.47;5093911;28;20134;-58
2022/09/24 08:11:13;;;;;;;7.72;4.18;;;;;;;13.14;61.60;98708.38;5089731;28;20074;-59
2022/09/24 08:13:59;;;;;;;5.47;3.75;;;;;;;14.93;56.73;98704.28;5088385;28;20028;-57
2022/09/24 08:16:43;;;;;;;5.18;3.67;;;;;;;14.42;57.31;98697.13;5094073;27;20486;-59
2022/09/24 08:19:30;;;;;;;7.22;4.03;;;;;;;14.35;57.68;98693.34;5097179;28;20398;-55
2022/09/24 08:22:14;;;;;;;8.82;4.45;;;;;;;13.73;60.09;98686.19;5098915;27;20039;-57
2022/09/24 08:25:01;;;;;;;5.70;3.97;;;;;;;14.94;57.22;98675.13;5099450;27;20036;-56
2022/09/24 08:27:46;;;;;;;5.55;3.83;;;;;;;15.15;55.88;98680.31;5077320;28;20055;-58
2022/09/24 08:30:32;;;;;;;6.30;4.18;;;;;;;15.62;54.89;98680.56;5092614;28;20036;-54
2022/09/24 08:33:17;;;;;;;5.22;3.58;;;;;;;15.93;53.68;98680.41;5097840;28;20051;-62
2022/09/24 08:36:06;;;;;;;7.05;4.85;;;;;;;16.02;53.66;98681.41;5099642;27;20044;-56
2022/09/24 08:38:53;;;;;;;5.93;3.92;;;;;;;15.92;53.03;98673.47;5086478;28;20119;-59
2022/09/24 08:42:04;;;;;;;6.30;3.70;;;;;;;15.82;54.13;98670.84;5102092;27;20115;-59
2022/09/24 08:48:12;;;;;;;5.43;3.78;;;;;;;14.90;55.79;98681.66;5093557;28;20808;-65
2022/09/24 08:51:01;;;;;;;6.25;4.18;;;;;;;15.01;56.20;98680.69;5098848;28;20047;-58
2022/09/24 08:54:16;;;;;;;7.30;3.83;;;;;;;14.93;56.58;98683.19;5090474;28;20036;-60
2022/09/24 08:57:10;;;;;;;6.43;4.18;;;;;;;14.97;56.51;98687.19;5049665;28;20052;-58
2022/09/24 08:59:55;;;;;;;5.65;3.63;;;;;;;16.05;54.67;98688.19;5054189;28;20575;-59
2022/09/24 09:02:54;;;;;;;5.93;3.97;;;;;;;16.21;53.07;98684.94;5053974;28;20057;-60
2022/09/24 09:05:53;;;;;;;5.55;3.53;;;;;;;17.26;50.62;98689.19;5058156;28;20048;-55
2022/09/24 09:08:41;;;;;;;5.32;3.22;;;;;;;17.90;48.84;98693.56;5059733;28;20040;-58
2022/09/24 09:11:30;;;;;;;8.43;3.22;;;;;;;18.90;47.78;98683.44;5059237;28;20472;-57
2022/09/24 09:14:32;;;;;;;5.72;3.78;;;;;;;17.55;50.14;98692.59;5062669;28;20041;-55
2022/09/24 09:17:31;;;;;;;4.60;3.45;;;;;;;17.20;49.82;98713.63;5059631;28;20151;-54
2022/09/24 09:20:20;;;;;;;4.90;3.67;;;;;;;17.88;50.01;98702.63;5062184;28;20072;-56
2022/09/24 09:23:12;;;;;;;5.35;2.90;;;;;;;18.83;47.62;98696.53;5050718;28;20076;-57
2022/09/24 09:25:58;;;;;;;5.18;3.42;;;;;;;18.28;48.48;98685.34;5062315;28;20119;-56
2022/09/24 09:28:45;;;;;;;5.55;3.72;;;;;;;17.85;49.45;98694.00;5053547;28;20138;-53
2022/09/24 09:31:57;;;;;;;9.40;3.90;;;;;;;17.76;49.90;98694.09;5062761;28;20103;-55
2022/09/24 09:35:10;;;;;;;9.27;4.20;;;;;;;18.39;57.04;98684.28;5091388;28;20079;-57
2022/09/24 09:38:09;;;;;;;7.82;3.90;;;;;;;17.63;50.73;98687.38;5093266;28;20531;-58
2022/09/24 09:41:15;;;;;;;5.25;3.40;;;;;;;17.76;50.37;98702.88;5090879;28;20069;-58
2022/09/24 09:44:12;;;;;;;4.80;3.50;;;;;;;18.08;49.49;98701.44;5108360;28;20044;-57
2022/09/24 09:47:27;;;;;;;5.95;3.53;;;;;;;18.17;50.04;98699.72;5093037;28;20100;-57
2022/09/24 09:50:40;;;;;;;5.80;3.42;;;;;;;18.72;48.97;98688.84;5093477;28;20040;-58
2022/09/24 09:53:30;;;;;;;6.47;3.55;;;;;;;19.44;46.50;98692.03;5081509;28;20064;-59
2022/09/24 09:56:14;;;;;;;5.93;3.38;;;;;;;18.99;47.43;98686.97;5095149;28;20082;-58
2022/09/24 09:59:21;;;;;;;4.32;3.25;;;;;;;18.97;47.42;98683.63;5096947;28;20048;-60
2022/09/24 10:02:10;;;;;;;5.28;2.97;;;;;;;20.07;45.11;98683.59;5092910;28;20522;-59
2022/09/24 10:04:59;;;;;;;4.65;3.20;;;;;;;20.46;44.10;98684.66;5091596;28;20039;-58
2022/09/24 10:07:44;;;;;;;5.88;3.10;;;;;;;20.75;43.06;98677.03;5092438;28;20502;-59
2022/09/24 10:10:28;;;;;;;4.70;3.05;;;;;;;19.36;46.38;98678.75;5089544;28;20052;-53
2022/09/24 10:13:13;;;;;;;4.68;3.17;;;;;;;19.06;48.86;98676.53;5089430;28;20044;-58
2022/09/24 10:16:04;;;;;;;4.60;2.70;;;;;;;19.86;46.29;98676.13;5089957;28;20074;-59
2022/09/24 10:18:49;;;;;;;5.53;2.85;;;;;;;19.92;45.66;98670.97;5094579;27;20692;-59
2022/09/24 10:21:36;;;;;;;4.03;2.40;;;;;;;19.97;45.62;98666.94;5101666;28;20455;-59
2022/09/24 10:24:24;;;;;;;4.93;2.88;;;;;;;18.40;49.02;98656.75;5092359;28;20059;-57
2022/09/24 10:27:18;;;;;;;7.35;3.60;;;;;;;19.68;50.02;98661.19;5107336;27;20067;-61
2022/09/24 10:33:17;;;;;;;2.85;2.25;;;;;;;22.05;41.95;98655.13;5102147;27;20036;-59
2022/09/24 10:36:06;;;;;;;5.03;2.60;;;;;;;20.90;43.91;98654.03;5109487;27;20036;-59
2022/09/24 10:39:11;;;;;;;6.22;3.10;;;;;;;21.50;42.92;98653.47;5091353;28;20536;-59
2022/09/24 10:41:57;;;;;;;3.03;2.22;;;;;;;20.66;44.19;98660.31;5102833;28;20039;-60
2022/09/24 10:44:41;;;;;;;4.95;2.65;;;;;;;20.68;43.40;98647.63;5104921;28;20111;-58
2022/09/24 10:47:52;;;;;;;3.17;2.40;;;;;;;20.44;44.78;98646.75;5103998;28;20044;-59
2022/09/24 10:50:53;;;;;;;3.95;2.45;;;;;;;21.75;41.64;98645.25;5096658;28;20429;-59
2022/09/24 10:54:02;;;;;;;6.18;3.25;;;;;;;21.03;42.67;98660.63;5091502;28;20032;-61
2022/09/24 10:56:52;;;;;;;9.90;4.22;;;;;;;20.36;46.20;98639.63;5092599;28;20048;-60
2022/09/24 10:59:53;;;;;;;6.75;2.85;;;;;;;21.37;45.54;98646.06;5093288;28;20600;-60
2022/09/24 11:02:42;;;;;;;6.45;2.75;;;;;;;20.58;44.58;98649.69;5097234;28;20044;-59
2022/09/24 11:05:59;;;;;;;6.30;3.05;;;;;;;18.66;49.26;98652.38;5088784;28;20103;-61
2022/09/24 11:09:14;;;;;;;5.30;2.83;;;;;;;19.81;46.60;98650.84;5068183;28;20064;-58
2022/09/24 11:12:24;;;;;;;4.13;2.30;;;;;;;19.84;49.39;98646.22;5062370;28;20039;-60
2022/09/24 11:15:47;;;;;;;4.60;2.50;;;;;;;19.28;48.23;98640.59;5074522;28;20059;-60
2022/09/24 11:19:00;;;;;;;5.38;2.63;;;;;;;18.42;50.71;98640.69;5089846;28;20036;-59
2022/09/24 11:21:56;;;;;;;4.35;2.72;;;;;;;18.67;49.73;98646.09;5090358;28;20036;-58
2022/09/24 11:24:49;;;;;;;4.68;3.00;;;;;;;18.27;51.16;98643.09;5070433;28;20090;-57
2022/09/24 11:28:00;;;;;;;4.30;2.65;;;;;;;17.89;51.76;98644.19;5070680;28;20090;-59
2022/09/24 11:30:54;;;;;;;4.05;2.33;;;;;;;18.22;50.87;98643.56;5083374;28;20121;-61
2022/09/24 11:34:11;;;;;;;3.50;2.30;;;;;;;18.32;50.96;98639.00;5086192;28;20121;-59
2022/09/24 11:37:36;;;;;;;4.30;2.50;;;;;;;18.66;50.01;98644.41;5082812;28;20044;-60
2022/09/24 11:40:28;;;;;;;5.70;2.78;;;;;;;18.36;50.80;98642.13;5087005;28;20060;-59
2022/09/24 11:43:26;;;;;;;3.00;2.25;;;;;;;18.40;51.10;98637.34;5087068;28;20061;-58
2022/09/24 11:46:37;;;;;;;4.10;2.28;;;;;;;18.11;51.84;98642.00;5087962;28;20071;-60
2022/09/24 11:49:36;;;;;;;5.90;2.67;;;;;;;17.56;53.72;98650.06;5054900;28;20098;-58
2022/09/24 11:52:33;;;;;;;4.20;2.78;;;;;;;17.72;53.09;98638.75;5051358;28;20472;-58
2022/09/24 11:55:43;;;;;;;3.90;2.17;;;;;;;17.87;53.03;98640.84;5040021;28;20064;-61
2022/09/24 11:58:33;;;;;;;4.05;2.38;;;;;;;18.04;52.43;98625.88;5051992;28;20063;-58
2022/09/24 12:01:23;;;;;;;5.10;2.15;;;;;;;17.82;53.49;98636.00;5057465;28;20131;-56
2022/09/24 12:04:15;;;;;;;4.10;2.80;;;;;;;18.17;53.01;98630.78;5049030;28;20047;-57
2022/09/24 12:07:18;;;;;;;3.88;2.25;;;;;;;17.58;54.54;98620.78;5061678;28;20052;-55
2022/09/24 12:10:18;;;;;;;7.80;2.75;;;;;;;17.96;53.35;98620.53;5038743;28;20060;-54
2022/09/24 12:13:11;;;;;;;3.53;2.00;;;;;;;18.34;52.13;98628.22;5055976;28;20068;-53
2022/09/24 12:16:18;;;;;;;2.50;1.88;;;;;;;18.76;51.04;98620.41;5057933;28;20057;-54
2022/09/24 12:19:25;;;;;;;3.42;2.08;;;;;;;18.63;50.71;98623.50;5055713;28;20055;-53
2022/09/24 12:22:11;;;;;;;3.35;1.90;;;;;;;18.92;51.06;98612.47;5050433;28;20036;-53
2022/09/24 12:24:59;;;;;;;4.00;1.83;;;;;;;19.45;49.11;98611.38;5038729;28;20132;-53
2022/09/24 12:27:44;;;;;;;3.20;2.10;;;;;;;18.75;50.56;98603.66;5087534;28;20653;-51
2022/09/24 12:33:51;;;;;;;4.90;1.83;;;;;;;21.05;45.31;98608.84;5103678;28;20066;-54
2022/09/24 12:36:55;;;;;;;2.92;1.75;;;;;;;19.90;47.72;98610.97;5110366;27;20036;-51
2022/09/24 12:39:58;;;;;;;2.42;1.80;;;;;;;19.87;47.89;98593.56;5087736;28;20040;-56
2022/09/24 12:42:49;;;;;;;5.63;2.33;;;;;;;20.16;47.43;98600.13;5088723;28;20039;-53
2022/09/24 12:45:34;;;;;;;2.88;1.70;;;;;;;20.90;46.11;98606.09;5089582;28;20047;-54
2022/09/24 12:48:24;;;;;;;3.00;1.85;;;;;;;21.36;45.33;98609.78;5102910;27;20036;-52
2022/09/24 12:51:10;;;;;;;2.00;1.50;;;;;;;21.73;43.43;98603.78;5088202;28;20040;-52
2022/09/24 12:54:04;;;;;;;3.90;1.88;;;;;;;21.04;45.69;98606.34;5097571;28;20430;-55
2022/09/24 12:56:49;;;;;;;3.47;1.77;;;;;;;21.57;43.70;98605.59;5091580;28;20123;-53
2022/09/24 13:00:01;;;;;;;2.83;1.83;;;;;;;22.60;41.81;98606.84;5091894;28;20558;-52
2022/09/24 13:02:46;;;;;;;2.78;1.80;;;;;;;21.25;44.60;98607.56;5088436;28;20550;-51
2022/09/24 13:05:43;;;;;;;2.55;1.65;;;;;;;22.24;42.12;98592.44;5088300;28;20157;-53
2022/09/24 13:08:37;;;;;;;2.83;1.75;;;;;;;21.76;43.26;98585.59;5095218;28;20068;-49
2022/09/24 13:11:33;;;;;;;2.72;1.52;;;;;;;21.92;42.75;98575.78;5110314;28;20475;-54
2022/09/24 13:14:28;;;;;;;1.83;1.27;;;;;;;22.58;42.29;98582.16;5110516;28;20133;-50
2022/09/24 13:17:14;;;;;;;3.50;1.55;;;;;;;23.35;40.30;98573.66;5091326;28;20036;-53
2022/09/24 13:20:05;;;;;;;3.08;1.75;;;;;;;21.96;42.02;98581.59;5088924;28;20057;-52
2022/09/24 13:23:18;;;;;;;4.45;1.80;;;;;;;22.35;41.63;98582.28;5087810;28;20523;-50
2022/09/24 13:26:07;;;;;;;2.30;1.73;;;;;;;21.15;44.21;98583.81;5087506;28;20085;-53
2022/09/24 13:28:57;;;;;;;3.45;1.75;;;;;;;21.37;44.17;98586.63;5094213;28;20095;-55
2022/09/24 13:31:47;;;;;;;2.22;1.45;;;;;;;20.88;44.66;98583.31;5089634;28;20083;-54
2022/09/24 13:34:33;;;;;;;2.75;1.48;;;;;;;20.47;45.53;98571.06;5095283;28;20048;-55
2022/09/24 13:37:35;;;;;;;2.55;1.63;;;;;;;20.78;45.13;98570.22;5090934;28;20032;-55
2022/09/24 13:40:25;;;;;;;4.75;1.60;;;;;;;21.31;44.57;98563.38;5088233;28;20044;-57